Time;durP1;ratioP1;P1;durP2;ratioP2;P2;SDS_P1;SDS_P2;PMS_P1;PMS_P2;Temp;Humidity;BMP_temperature;BMP_pressure;BME280_temperature;BME280_humidity;BME280_pressure;Samples;Min_cycle;Max_cycle;Signal;HPM_P1;HPM_P2
2023/01/08 00:01:33;;;;;;;;;;;;;;;;;;4786328;27;20289;-63
2023/01/08 00:03:59;;;;;;;;;;;;;;;;;;4786572;27;20292;-63
2023/01/08 00:06:25;;;;;;;;;;;;;;;;;;4776025;27;20275;-63
2023/01/08 00:08:51;;;;;;;;;;;;;;;;;;4767231;27;20890;-63
2023/01/08 00:11:17;;;;;;;;;;;;;;;;;;4768074;27;20300;-64
2023/01/08 00:13:43;;;;;;;;;;;;;;;;;;4767271;27;20304;-63
2023/01/08 00:16:09;;;;;;;;;;;;;;;;;;4767284;27;20285;-64
2023/01/08 00:18:34;;;;;;;;;;;;;;;;;;4780181;27;20287;-64
2023/01/08 00:21:00;;;;;;;;;;;;;;;;;;4784944;27;21004;-64
2023/01/08 00:23:26;;;;;;;;;;;;;;;;;;4766333;27;20363;-63
2023/01/08 00:25:52;;;;;;;;;;;;;;;;;;4765909;27;20290;-63
2023/01/08 00:28:19;;;;;;;;;;;;;;;;;;4766188;27;20322;-64
2023/01/08 00:30:45;;;;;;;;;;;;;;;;;;4765820;27;20311;-63
2023/01/08 00:33:11;;;;;;;;;;;;;;;;;;4766785;27;20300;-63
2023/01/08 00:35:37;;;;;;;;;;;;;;;;;;4766375;27;20228;-64
2023/01/08 00:38:03;;;;;;;;;;;;;;;;;;4759322;27;20237;-64
2023/01/08 00:40:29;;;;;;;;;;;;;;;;;;4765183;27;20332;-63
2023/01/08 00:42:55;;;;;;;;;;;;;;;;;;4783110;27;20272;-63
2023/01/08 00:45:21;;;;;;;;;;;;;;;;;;4783210;27;20290;-64
2023/01/08 00:47:46;;;;;;;;;;;;;;;;;;4783581;27;20610;-64
2023/01/08 00:50:12;;;;;;;;;;;;;;;;;;4784277;27;20288;-63
2023/01/08 00:52:38;;;;;;;;;;;;;;;;;;4784802;27;20295;-64
2023/01/08 00:55:04;;;;;;;;;;;;;;;;;;4785894;27;20301;-64
2023/01/08 00:57:30;;;;;;;;;;;;;;;;;;4785670;27;20301;-63
2023/01/08 00:59:56;;;;;;;;;;;;;;;;;;4770467;27;20286;-64
2023/01/08 01:02:22;;;;;;;;;;;;;;;;;;4766933;27;20239;-64
2023/01/08 01:04:48;;;;;;;;;;;;;;;;;;4750035;27;20413;-62
2023/01/08 01:07:14;;;;;;;;;;;;;;;;;;4765054;27;20299;-63
2023/01/08 01:09:39;;;;;;;;;;;;;;;;;;4766160;27;20299;-64
2023/01/08 01:12:05;;;;;;;;;;;;;;;;;;4766393;27;20245;-64
2023/01/08 01:14:31;;;;;;;;;;;;;;;;;;4766735;27;20398;-64
2023/01/08 01:16:57;;;;;;;;;;;;;;;;;;4768344;27;20274;-63
2023/01/08 01:19:23;;;;;;;;;;;;;;;;;;4767824;27;20711;-64
2023/01/08 01:21:49;;;;;;;;;;;;;;;;;;4768056;27;20279;-63
2023/01/08 01:24:15;;;;;;;;;;;;;;;;;;4767322;27;20333;-64
2023/01/08 01:26:41;;;;;;;;;;;;;;;;;;4768384;27;20715;-63
2023/01/08 01:29:07;;;;;;;;;;;;;;;;;;4785842;27;20369;-64
2023/01/08 01:31:33;;;;;;;;;;;;;;;;;;4786002;27;20883;-64
2023/01/08 01:33:59;;;;;;;;;;;;;;;;;;4772951;27;20283;-64
2023/01/08 01:36:25;;;;;;;;;;;;;;;;;;4766913;27;20702;-63
2023/01/08 01:38:50;;;;;;;;;;;;;;;;;;4785844;27;20298;-63
2023/01/08 01:41:16;;;;;;;;;;;;;;;;;;4784619;27;20237;-63
2023/01/08 01:43:42;;;;;;;;;;;;;;;;;;4784558;27;20274;-63
2023/01/08 01:46:08;;;;;;;;;;;;;;;;;;4784247;27;20696;-63
2023/01/08 01:48:34;;;;;;;;;;;;;;;;;;4767052;27;20308;-64
2023/01/08 01:51:00;;;;;;;;;;;;;;;;;;4766605;27;20793;-64
2023/01/08 01:53:26;;;;;;;;;;;;;;;;;;4766666;27;20296;-64
2023/01/08 01:55:52;;;;;;;;;;;;;;;;;;4766498;27;20708;-65
2023/01/08 01:58:17;;;;;;;;;;;;;;;;;;4765632;27;20253;-64
2023/01/08 02:00:43;;;;;;;;;;;;;;;;;;4765501;27;20289;-62
2023/01/08 02:03:09;;;;;;;;;;;;;;;;;;4748887;27;20278;-64
2023/01/08 02:05:35;;;;;;;;;;;;;;;;;;4766761;27;20328;-63
2023/01/08 02:08:01;;;;;;;;;;;;;;;;;;4765733;27;20734;-64
2023/01/08 02:10:27;;;;;;;;;;;;;;;;;;4766492;27;20295;-64
2023/01/08 02:12:53;;;;;;;;;;;;;;;;;;4766097;27;20842;-63
2023/01/08 02:15:20;;;;;;;;;;;;;;;;;;4766748;27;20246;-63
2023/01/08 02:17:46;;;;;;;;;;;;;;;;;;4766341;27;20234;-61
2023/01/08 02:20:12;;;;;;;;;;;;;;;;;;4766928;27;20242;-63
2023/01/08 02:22:38;;;;;;;;;;;;;;;;;;4768781;27;20225;-63
2023/01/08 02:25:04;;;;;;;;;;;;;;;;;;4768509;27;20605;-63
2023/01/08 02:27:30;;;;;;;;;;;;;;;;;;4768197;27;20782;-63
2023/01/08 02:29:56;;;;;;;;;;;;;;;;;;4769721;27;20719;-65
2023/01/08 02:32:22;;;;;;;;;;;;;;;;;;4767865;27;20730;-62
2023/01/08 02:34:48;;;;;;;;;;;;;;;;;;4767211;27;20385;-63
2023/01/08 02:37:14;;;;;;;;;;;;;;;;;;4766829;27;21080;-63
2023/01/08 02:39:39;;;;;;;;;;;;;;;;;;4749919;27;20265;-63
2023/01/08 02:42:05;;;;;;;;;;;;;;;;;;4766543;27;20304;-63
2023/01/08 02:44:31;;;;;;;;;;;;;;;;;;4759862;27;20272;-63
2023/01/08 02:46:57;;;;;;;;;;;;;;;;;;4766505;27;20298;-63
2023/01/08 02:49:23;;;;;;;;;;;;;;;;;;4767552;27;20744;-63
2023/01/08 02:51:49;;;;;;;;;;;;;;;;;;4767828;27;20306;-63
2023/01/08 02:54:15;;;;;;;;;;;;;;;;;;4767554;27;20255;-63
2023/01/08 02:56:41;;;;;;;;;;;;;;;;;;4767457;27;20316;-64
2023/01/08 02:59:06;;;;;;;;;;;;;;;;;;4766997;27;20275;-63
2023/01/08 03:01:33;;;;;;;;;;;;;;;;;;4783900;27;20319;-64
2023/01/08 03:03:58;;;;;;;;;;;;;;;;;;4787962;27;20380;-63
2023/01/08 03:06:24;;;;;;;;;;;;;;;;;;4789608;27;20705;-63
2023/01/08 03:08:50;;;;;;;;;;;;;;;;;;4785298;27;20289;-63
2023/01/08 03:11:16;;;;;;;;;;;;;;;;;;4789572;27;21168;-63
2023/01/08 03:13:42;;;;;;;;;;;;;;;;;;4790646;27;20246;-63
2023/01/08 03:16:08;;;;;;;;;;;;;;;;;;4790641;27;20270;-63
2023/01/08 03:18:34;;;;;;;;;;;;;;;;;;4790970;27;20459;-64
2023/01/08 03:21:00;;;;;;;;;;;;;;;;;;4782756;27;20351;-63
2023/01/08 03:23:25;;;;;;;;;;;;;;;;;;4772883;27;20301;-63
2023/01/08 03:25:51;;;;;;;;;;;;;;;;;;4772876;27;20304;-63
2023/01/08 03:28:17;;;;;;;;;;;;;;;;;;4772628;27;20273;-64
2023/01/08 03:30:43;;;;;;;;;;;;;;;;;;4771880;27;20293;-64
2023/01/08 03:33:09;;;;;;;;;;;;;;;;;;4779222;27;20396;-64
2023/01/08 03:35:35;;;;;;;;;;;;;;;;;;4790508;27;20403;-64
2023/01/08 03:38:01;;;;;;;;;;;;;;;;;;4790255;27;20299;-63
2023/01/08 03:40:27;;;;;;;;;;;;;;;;;;4789176;27;20743;-63
2023/01/08 03:42:53;;;;;;;;;;;;;;;;;;4790273;27;20273;-63
2023/01/08 03:45:18;;;;;;;;;;;;;;;;;;4789992;27;20397;-64
2023/01/08 03:47:44;;;;;;;;;;;;;;;;;;4790303;27;20307;-62
2023/01/08 03:50:10;;;;;;;;;;;;;;;;;;4789418;27;20321;-63
2023/01/08 03:52:36;;;;;;;;;;;;;;;;;;4789891;27;20271;-63
2023/01/08 03:55:02;;;;;;;;;;;;;;;;;;4789137;27;20666;-64
2023/01/08 03:57:28;;;;;;;;;;;;;;;;;;4789505;27;20395;-64
2023/01/08 03:59:54;;;;;;;;;;;;;;;;;;4789388;27;20618;-63
2023/01/08 04:02:20;;;;;;;;;;;;;;;;;;4789954;27;20272;-64
2023/01/08 04:04:45;;;;;;;;;;;;;;;;;;4778228;27;20367;-64
2023/01/08 04:07:11;;;;;;;;;;;;;;;;;;4756227;27;20278;-63
2023/01/08 04:09:37;;;;;;;;;;;;;;;;;;4769210;27;20238;-64
2023/01/08 04:12:03;;;;;;;;;;;;;;;;;;4769065;27;20225;-63
2023/01/08 04:14:29;;;;;;;;;;;;;;;;;;4769422;27;20678;-63
2023/01/08 04:16:55;;;;;;;;;;;;;;;;;;4770889;27;20225;-63
2023/01/08 04:19:21;;;;;;;;;;;;;;;;;;4770038;27;20249;-64
2023/01/08 04:21:47;;;;;;;;;;;;;;;;;;4770575;27;20274;-64
2023/01/08 04:24:13;;;;;;;;;;;;;;;;;;4769398;27;20373;-64
2023/01/08 04:26:38;;;;;;;;;;;;;;;;;;4769935;27;20227;-64
2023/01/08 04:29:04;;;;;;;;;;;;;;;;;;4770939;27;20279;-64
2023/01/08 04:31:30;;;;;;;;;;;;;;;;;;4770720;27;20677;-64
2023/01/08 04:33:56;;;;;;;;;;;;;;;;;;4783340;27;20233;-64
2023/01/08 04:36:22;;;;;;;;;;;;;;;;;;4789335;27;20287;-64
2023/01/08 04:38:48;;;;;;;;;;;;;;;;;;4788171;27;20336;-63
2023/01/08 04:41:17;;;;;;;;;;;;;;;;;;4787812;27;20263;-64
2023/01/08 04:43:43;;;;;;;;;;;;;;;;;;4787274;27;20277;-63
2023/01/08 04:46:08;;;;;;;;;;;;;;;;;;4785279;27;20239;-63
2023/01/08 04:48:34;;;;;;;;;;;;;;;;;;4776675;27;20687;-64
2023/01/08 04:51:00;;;;;;;;;;;;;;;;;;4769653;27;20284;-63
2023/01/08 04:53:26;;;;;;;;;;;;;;;;;;4774932;27;20316;-63
2023/01/08 04:55:53;;;;;;;;;;;;;;;;;;4770222;27;20271;-64
2023/01/08 04:58:19;;;;;;;;;;;;;;;;;;4769437;27;20355;-63
2023/01/08 05:00:45;;;;;;;;;;;;;;;;;;4768838;27;20279;-64
2023/01/08 05:03:10;;;;;;;;;;;;;;;;;;4779652;27;20228;-64
2023/01/08 05:05:36;;;;;;;;;;;;;;;;;;4785652;27;20406;-63
2023/01/08 05:08:02;;;;;;;;;;;;;;;;;;4782622;27;20315;-63
2023/01/08 05:10:28;;;;;;;;;;;;;;;;;;4785780;27;20326;-63
2023/01/08 05:12:54;;;;;;;;;;;;;;;;;;4786318;27;20294;-63
2023/01/08 05:15:20;;;;;;;;;;;;;;;;;;4785533;27;20296;-64
2023/01/08 05:17:46;;;;;;;;;;;;;;;;;;4785694;27;20231;-64
2023/01/08 05:20:12;;;;;;;;;;;;;;;;;;4785756;27;20727;-64
2023/01/08 05:22:37;;;;;;;;;;;;;;;;;;4785741;27;20274;-64
2023/01/08 05:25:03;;;;;;;;;;;;;;;;;;4782120;27;20727;-64
2023/01/08 05:27:29;;;;;;;;;;;;;;;;;;4766051;27;20255;-64
2023/01/08 05:29:55;;;;;;;;;;;;;;;;;;4768315;27;20308;-64
2023/01/08 05:32:21;;;;;;;;;;;;;;;;;;4783627;27;20277;-64
2023/01/08 05:34:47;;;;;;;;;;;;;;;;;;4766306;27;20653;-64
2023/01/08 05:37:13;;;;;;;;;;;;;;;;;;4773999;27;20354;-64
2023/01/08 05:39:39;;;;;;;;;;;;;;;;;;4784057;27;20445;-63
2023/01/08 05:42:05;;;;;;;;;;;;;;;;;;4767352;27;20854;-64
2023/01/08 05:44:30;;;;;;;;;;;;;;;;;;4767064;27;20272;-64
2023/01/08 05:46:56;;;;;;;;;;;;;;;;;;4767026;27;20281;-64
2023/01/08 05:49:22;;;;;;;;;;;;;;;;;;4766909;27;20318;-63
2023/01/08 05:51:48;;;;;;;;;;;;;;;;;;4768283;27;20283;-64
2023/01/08 05:54:14;;;;;;;;;;;;;;;;;;4761176;27;20742;-64
2023/01/08 05:56:42;;;;;;;;;;;;;;;;;;4767745;27;20731;-63
2023/01/08 05:59:08;;;;;;;;;;;;;;;;;;4768423;27;20302;-66
2023/01/08 06:01:34;;;;;;;;;;;;;;;;;;4765619;27;20298;-65
2023/01/08 06:04:00;;;;;;;;;;;;;;;;;;4766702;27;20805;-64
2023/01/08 06:06:26;;;;;;;;;;;;;;;;;;4768242;27;20346;-63
2023/01/08 06:08:52;;;;;;;;;;;;;;;;;;4777556;27;20334;-64
2023/01/08 06:11:18;;;;;;;;;;;;;;;;;;4766395;27;20320;-64
2023/01/08 06:13:46;;;;;;;;;;;;;;;;;;4775716;27;22022;-64
2023/01/08 06:16:12;;;;;;;;;;;;;;;;;;4784273;27;20267;-64
2023/01/08 06:18:37;;;;;;;;;;;;;;;;;;4784735;27;20233;-64
2023/01/08 06:21:04;;;;;;;;;;;;;;;;;;4786249;27;20307;-63
2023/01/08 06:23:30;;;;;;;;;;;;;;;;;;4785354;27;20278;-64
2023/01/08 06:25:55;;;;;;;;;;;;;;;;;;4784645;27;20691;-63
2023/01/08 06:28:21;;;;;;;;;;;;;;;;;;4785324;27;20457;-64
2023/01/08 06:30:47;;;;;;;;;;;;;;;;;;4784683;27;20334;-64
2023/01/08 06:33:13;;;;;;;;;;;;;;;;;;4784515;27;20279;-64
2023/01/08 06:35:39;;;;;;;;;;;;;;;;;;4785653;27;20265;-64
2023/01/08 06:38:05;;;;;;;;;;;;;;;;;;4784959;27;20235;-64
2023/01/08 06:40:31;;;;;;;;;;;;;;;;;;4784784;27;20717;-64
2023/01/08 06:42:57;;;;;;;;;;;;;;;;;;4786936;27;20229;-64
2023/01/08 06:45:23;;;;;;;;;;;;;;;;;;4785131;27;20714;-64
2023/01/08 06:47:49;;;;;;;;;;;;;;;;;;4784161;27;20399;-64
2023/01/08 06:50:15;;;;;;;;;;;;;;;;;;4767155;27;20299;-64
2023/01/08 06:52:41;;;;;;;;;;;;;;;;;;4767354;27;20433;-63
2023/01/08 06:55:07;;;;;;;;;;;;;;;;;;4767465;27;20294;-63
2023/01/08 06:57:33;;;;;;;;;;;;;;;;;;4766271;27;20300;-63
2023/01/08 06:59:59;;;;;;;;;;;;;;;;;;4766596;27;20235;-63
2023/01/08 07:02:25;;;;;;;;;;;;;;;;;;4760101;27;20242;-64
2023/01/08 07:04:51;;;;;;;;;;;;;;;;;;4785363;27;20226;-64
2023/01/08 07:07:16;;;;;;;;;;;;;;;;;;4783322;27;20395;-63
2023/01/08 07:09:42;;;;;;;;;;;;;;;;;;4784989;27;20314;-63
2023/01/08 07:12:09;;;;;;;;;;;;;;;;;;4769882;27;20283;-64
2023/01/08 07:14:35;;;;;;;;;;;;;;;;;;4764291;27;20321;-64
2023/01/08 07:17:00;;;;;;;;;;;;;;;;;;4764351;27;20288;-64
2023/01/08 07:19:26;;;;;;;;;;;;;;;;;;4764047;27;20266;-64
2023/01/08 07:21:52;;;;;;;;;;;;;;;;;;4768540;27;20231;-64
2023/01/08 07:24:18;;;;;;;;;;;;;;;;;;4750781;28;20807;-65
2023/01/08 07:26:44;;;;;;;;;;;;;;;;;;4784129;27;20269;-64
2023/01/08 07:29:10;;;;;;;;;;;;;;;;;;4786521;27;20690;-64
2023/01/08 07:31:36;;;;;;;;;;;;;;;;;;4776406;27;20287;-65
2023/01/08 07:34:02;;;;;;;;;;;;;;;;;;4782288;27;20846;-65
2023/01/08 07:36:28;;;;;;;;;;;;;;;;;;4766750;27;20364;-65
2023/01/08 07:38:53;;;;;;;;;;;;;;;;;;4784847;27;20289;-65
2023/01/08 07:41:19;;;;;;;;;;;;;;;;;;4783502;27;20310;-64
2023/01/08 07:43:45;;;;;;;;;;;;;;;;;;4782205;27;20284;-65
2023/01/08 07:46:11;;;;;;;;;;;;;;;;;;4782028;27;20312;-65
2023/01/08 07:48:37;;;;;;;;;;;;;;;;;;4781595;27;20297;-63
2023/01/08 07:51:03;;;;;;;;;;;;;;;;;;4784562;27;20262;-64
2023/01/08 07:53:29;;;;;;;;;;;;;;;;;;4782458;27;20310;-64
2023/01/08 07:55:55;;;;;;;;;;;;;;;;;;4784827;27;20318;-65
2023/01/08 07:58:21;;;;;;;;;;;;;;;;;;4787281;27;20346;-65
2023/01/08 08:00:46;;;;;;;;;;;;;;;;;;4786389;27;20284;-65
2023/01/08 08:03:13;;;;;;;;;;;;;;;;;;4784037;27;21048;-62
2023/01/08 08:05:39;;;;;;;;;;;;;;;;;;4761225;27;20710;-65
2023/01/08 08:08:04;;;;;;;;;;;;;;;;;;4776173;27;20247;-64
2023/01/08 08:10:30;;;;;;;;;;;;;;;;;;4776473;27;20389;-64
2023/01/08 08:12:56;;;;;;;;;;;;;;;;;;4771001;27;20269;-63
2023/01/08 08:15:22;;;;;;;;;;;;;;;;;;4766635;27;20241;-62
2023/01/08 08:17:48;;;;;;;;;;;;;;;;;;4763982;27;20253;-63
2023/01/08 08:20:14;;;;;;;;;;;;;;;;;;4778651;27;20305;-64
2023/01/08 08:22:40;;;;;;;;;;;;;;;;;;4789628;27;20413;-64
2023/01/08 08:25:06;;;;;;;;;;;;;;;;;;4789643;27;20234;-64
2023/01/08 08:27:31;;;;;;;;;;;;;;;;;;4771307;27;20259;-64
2023/01/08 08:29:57;;;;;;;;;;;;;;;;;;4789410;27;20279;-64
2023/01/08 08:32:23;;;;;;;;;;;;;;;;;;4789417;27;20232;-65
2023/01/08 08:34:49;;;;;;;;;;;;;;;;;;4762601;27;20313;-62
2023/01/08 08:37:15;;;;;;;;;;;;;;;;;;4753009;27;20265;-63
2023/01/08 08:39:41;;;;;;;;;;;;;;;;;;4734508;27;20294;-64
2023/01/08 08:42:07;;;;;;;;;;;;;;;;;;4758553;27;20274;-63
2023/01/08 08:44:33;;;;;;;;;;;;;;;;;;4752356;27;20323;-63
2023/01/08 08:46:59;;;;;;;;;;;;;;;;;;4761679;27;20357;-64
2023/01/08 08:49:24;;;;;;;;;;;;;;;;;;4759284;27;20311;-63
2023/01/08 08:51:51;;;;;;;;;;;;;;;;;;4764752;27;20282;-63
2023/01/08 08:54:17;;;;;;;;;;;;;;;;;;4761641;27;20807;-64
2023/01/08 08:56:43;;;;;;;;;;;;;;;;;;4766212;27;20235;-66
2023/01/08 08:59:11;;;;;;;;;;;;;;;;;;4767334;27;20326;-63
2023/01/08 09:01:37;;;;;;;;;;;;;;;;;;4763074;27;20414;-64
2023/01/08 09:04:03;;;;;;;;;;;;;;;;;;4758992;27;20392;-63
2023/01/08 09:06:30;;;;;;;;;;;;;;;;;;4762964;27;20358;-62
2023/01/08 09:08:56;;;;;;;;;;;;;;;;;;4763557;27;20288;-64
2023/01/08 09:11:22;;;;;;;;;;;;;;;;;;4763708;27;20233;-62
2023/01/08 09:13:48;;;;;;;;;;;;;;;;;;4759521;27;20289;-63
2023/01/08 09:16:14;;;;;;;;;;;;;;;;;;4758008;27;20310;-62
2023/01/08 09:18:40;;;;;;;;;;;;;;;;;;4760279;27;20666;-64
2023/01/08 09:21:06;;;;;;;;;;;;;;;;;;4754854;27;20421;-64
2023/01/08 09:23:32;;;;;;;;;;;;;;;;;;4752702;27;20253;-64
2023/01/08 09:25:58;;;;;;;;;;;;;;;;;;4760462;27;20237;-61
2023/01/08 09:28:23;;;;;;;;;;;;;;;;;;4762324;27;20273;-62
2023/01/08 09:30:49;;;;;;;;;;;;;;;;;;4760262;27;20465;-62
2023/01/08 09:33:15;;;;;;;;;;;;;;;;;;4759480;27;20314;-62
2023/01/08 09:35:41;;;;;;;;;;;;;;;;;;4760206;27;20286;-62
2023/01/08 09:38:07;;;;;;;;;;;;;;;;;;4756505;27;20243;-63
2023/01/08 09:40:33;;;;;;;;;;;;;;;;;;4752004;27;20240;-62
2023/01/08 09:42:59;;;;;;;;;;;;;;;;;;4761574;27;20282;-63
2023/01/08 09:45:25;;;;;;;;;;;;;;;;;;4768373;27;20289;-63
2023/01/08 09:47:50;;;;;;;;;;;;;;;;;;4768558;27;20746;-64
2023/01/08 09:50:16;;;;;;;;;;;;;;;;;;4770533;27;20747;-62
2023/01/08 09:52:42;;;;;;;;;;;;;;;;;;4772175;27;20263;-62
2023/01/08 09:55:08;;;;;;;;;;;;;;;;;;4763043;27;21168;-60
2023/01/08 09:57:34;;;;;;;;;;;;;;;;;;4767829;27;20392;-62
2023/01/08 10:00:00;;;;;;;;;;;;;;;;;;4769178;27;20226;-64
2023/01/08 10:02:27;;;;;;;;;;;;;;;;;;4766189;27;20240;-65
2023/01/08 10:04:53;;;;;;;;;;;;;;;;;;4763837;27;20311;-64
2023/01/08 10:07:20;;;;;;;;;;;;;;;;;;4752852;27;20818;-63
2023/01/08 10:09:46;;;;;;;;;;;;;;;;;;4760249;27;20604;-64
2023/01/08 10:12:12;;;;;;;;;;;;;;;;;;4756208;27;20311;-64
2023/01/08 10:14:38;;;;;;;;;;;;;;;;;;4760027;27;20266;-63
2023/01/08 10:17:04;;;;;;;;;;;;;;;;;;4756216;27;20233;-63
2023/01/08 10:19:30;;;;;;;;;;;;;;;;;;4765777;27;20267;-62
2023/01/08 10:21:56;;;;;;;;;;;;;;;;;;4758231;27;20304;-60
2023/01/08 10:24:21;;;;;;;;;;;;;;;;;;4763244;27;20284;-62
2023/01/08 10:26:47;;;;;;;;;;;;;;;;;;4765181;27;20282;-64
2023/01/08 10:29:13;;;;;;;;;;;;;;;;;;4762879;27;20265;-63
2023/01/08 10:31:39;;;;;;;;;;;;;;;;;;4757451;27;20311;-62
2023/01/08 10:34:05;;;;;;;;;;;;;;;;;;4760337;27;20249;-64
2023/01/08 10:36:31;;;;;;;;;;;;;;;;;;4757762;27;20895;-63
2023/01/08 10:38:57;;;;;;;;;;;;;;;;;;4766450;27;20274;-64
2023/01/08 10:41:23;;;;;;;;;;;;;;;;;;4760833;27;20284;-63
2023/01/08 10:43:49;;;;;;;;;;;;;;;;;;4762347;27;20280;-64
2023/01/08 10:46:14;;;;;;;;;;;;;;;;;;4758370;27;20558;-62
2023/01/08 10:48:40;;;;;;;;;;;;;;;;;;4762301;27;20362;-63
2023/01/08 10:51:06;;;;;;;;;;;;;;;;;;4763213;27;20816;-62
2023/01/08 10:53:32;;;;;;;;;;;;;;;;;;4754594;27;20249;-62
2023/01/08 10:55:58;;;;;;;;;;;;;;;;;;4763568;27;20300;-64
2023/01/08 10:58:24;;;;;;;;;;;;;;;;;;4762216;27;20301;-63
2023/01/08 11:00:50;;;;;;;;;;;;;;;;;;4765744;27;20684;-62
2023/01/08 11:03:16;;;;;;;;;;;;;;;;;;4768135;27;20320;-63
2023/01/08 11:05:42;;;;;;;;;;;;;;;;;;4762901;27;20627;-62
2023/01/08 11:08:08;;;;;;;;;;;;;;;;;;4756570;27;20422;-62
2023/01/08 11:10:34;;;;;;;;;;;;;;;;;;4760403;27;20241;-63
2023/01/08 11:13:00;;;;;;;;;;;;;;;;;;4760941;27;20265;-64
2023/01/08 11:15:26;;;;;;;;;;;;;;;;;;4771524;27;20268;-63
2023/01/08 11:17:51;;;;;;;;;;;;;;;;;;4761353;27;20274;-61
2023/01/08 11:20:17;;;;;;;;;;;;;;;;;;4759933;27;20273;-62
2023/01/08 11:22:43;;;;;;;;;;;;;;;;;;4758109;27;20308;-64
2023/01/08 11:25:09;;;;;;;;;;;;;;;;;;4759062;27;20315;-63
2023/01/08 11:27:35;;;;;;;;;;;;;;;;;;4765399;27;20293;-63
2023/01/08 11:30:01;;;;;;;;;;;;;;;;;;4764128;27;20264;-63
2023/01/08 11:32:27;;;;;;;;;;;;;;;;;;4764402;27;20618;-62
2023/01/08 11:34:53;;;;;;;;;;;;;;;;;;4770631;27;20313;-63
2023/01/08 11:37:19;;;;;;;;;;;;;;;;;;4767797;27;20235;-63
2023/01/08 11:39:45;;;;;;;;;;;;;;;;;;4760662;27;20335;-64
2023/01/08 11:42:10;;;;;;;;;;;;;;;;;;4762205;27;20846;-63
2023/01/08 11:44:36;;;;;;;;;;;;;;;;;;4762970;27;20297;-63
2023/01/08 11:47:02;;;;;;;;;;;;;;;;;;4762412;27;20796;-63
2023/01/08 11:49:28;;;;;;;;;;;;;;;;;;4758467;27;20441;-63
2023/01/08 11:51:54;;;;;;;;;;;;;;;;;;4771694;27;20235;-65
2023/01/08 11:54:20;;;;;;;;;;;;;;;;;;4761892;27;20282;-63
2023/01/08 11:56:46;;;;;;;;;;;;;;;;;;4765901;27;20241;-64
2023/01/08 11:59:12;;;;;;;;;;;;;;;;;;4762154;27;20686;-64
2023/01/08 12:01:38;;;;;;;;;;;;;;;;;;4760278;27;20310;-64
2023/01/08 12:04:03;;;;;;;;;;;;;;;;;;4764640;27;20289;-64
2023/01/08 12:06:29;;;;;;;;;;;;;;;;;;4765025;27;20358;-65
2023/01/08 12:08:55;;;;;;;;;;;;;;;;;;4760442;27;20296;-64
2023/01/08 12:11:21;;;;;;;;;;;;;;;;;;4760285;27;20285;-61
2023/01/08 12:13:47;;;;;;;;;;;;;;;;;;4770302;27;20245;-64
2023/01/08 12:16:13;;;;;;;;;;;;;;;;;;4766129;27;20693;-64
2023/01/08 12:18:39;;;;;;;;;;;;;;;;;;4769233;27;20306;-64
2023/01/08 12:21:05;;;;;;;;;;;;;;;;;;4768296;27;20371;-63
2023/01/08 12:23:31;;;;;;;;;;;;;;;;;;4769131;27;20808;-65
2023/01/08 12:25:56;;;;;;;;;;;;;;;;;;4744461;27;20230;-64
2023/01/08 12:28:22;;;;;;;;;;;;;;;;;;4764223;27;20736;-65
2023/01/08 12:30:50;;;;;;;;;;;;;;;;;;4767227;27;20245;-66
2023/01/08 12:33:16;;;;;;;;;;;;;;;;;;4766739;27;20234;-65
2023/01/08 12:35:41;;;;;;;;;;;;;;;;;;4762636;27;20348;-65
2023/01/08 12:38:07;;;;;;;;;;;;;;;;;;4763725;27;20843;-64
2023/01/08 12:40:33;;;;;;;;;;;;;;;;;;4763880;27;20430;-63
2023/01/08 12:42:59;;;;;;;;;;;;;;;;;;4769393;27;20680;-63
2023/01/08 12:45:25;;;;;;;;;;;;;;;;;;4762968;27;20358;-64
2023/01/08 12:47:51;;;;;;;;;;;;;;;;;;4759467;27;20319;-64
2023/01/08 12:50:17;;;;;;;;;;;;;;;;;;4762238;27;20279;-64
2023/01/08 12:52:43;;;;;;;;;;;;;;;;;;4758375;27;20692;-65
2023/01/08 12:55:09;;;;;;;;;;;;;;;;;;4762871;27;20228;-64
2023/01/08 12:57:34;;;;;;;;;;;;;;;;;;4758814;27;20355;-65
2023/01/08 13:00:00;;;;;;;;;;;;;;;;;;4756934;27;20419;-65
2023/01/08 13:02:26;;;;;;;;;;;;;;;;;;4756829;27;20258;-63
2023/01/08 13:04:52;;;;;;;;;;;;;;;;;;4766602;27;20240;-64
2023/01/08 13:07:18;;;;;;;;;;;;;;;;;;4760287;27;20937;-65
2023/01/08 13:09:44;;;;;;;;;;;;;;;;;;4769665;27;20435;-64
2023/01/08 13:12:10;;;;;;;;;;;;;;;;;;4768483;27;20354;-64
2023/01/08 13:14:36;;;;;;;;;;;;;;;;;;4768051;27;20267;-65
2023/01/08 13:17:02;;;;;;;;;;;;;;;;;;4764821;27;20299;-65
2023/01/08 13:19:27;;;;;;;;;;;;;;;;;;4770722;27;20256;-66
2023/01/08 13:21:53;;;;;;;;;;;;;;;;;;4769226;27;20399;-65
2023/01/08 13:24:19;;;;;;;;;;;;;;;;;;4770895;27;20374;-64
2023/01/08 13:26:45;;;;;;;;;;;;;;;;;;4769224;27;20275;-65
2023/01/08 13:29:11;;;;;;;;;;;;;;;;;;4760712;27;20336;-65
2023/01/08 13:31:37;;;;;;;;;;;;;;;;;;4757569;27;20342;-65
2023/01/08 13:34:03;;;;;;;;;;;;;;;;;;4758850;27;20318;-66
2023/01/08 13:36:29;;;;;;;;;;;;;;;;;;4760207;27;20531;-67
2023/01/08 13:38:55;;;;;;;;;;;;;;;;;;4760232;27;20231;-65
2023/01/08 13:41:21;;;;;;;;;;;;;;;;;;4757843;27;20287;-65
2023/01/08 13:43:48;;;;;;;;;;;;;;;;;;4755828;27;20312;-66
2023/01/08 13:46:13;;;;;;;;;;;;;;;;;;4760752;27;20286;-64
2023/01/08 13:48:39;;;;;;;;;;;;;;;;;;4751291;27;20300;-62
2023/01/08 13:51:05;;;;;;;;;;;;;;;;;;4761337;27;20233;-63
2023/01/08 13:53:31;;;;;;;;;;;;;;;;;;4751900;27;20260;-63
2023/01/08 13:55:57;;;;;;;;;;;;;;;;;;4769582;27;20869;-63
2023/01/08 13:58:23;;;;;;;;;;;;;;;;;;4756048;27;20314;-66
2023/01/08 14:00:49;;;;;;;;;;;;;;;;;;4769345;27;20239;-67
2023/01/08 14:03:15;;;;;;;;;;;;;;;;;;4764521;27;20277;-67
2023/01/08 14:05:40;;;;;;;;;;;;;;;;;;4749761;27;20279;-67
2023/01/08 14:08:06;;;;;;;;;;;;;;;;;;4760115;27;20257;-68
2023/01/08 14:10:32;;;;;;;;;;;;;;;;;;4759139;27;20291;-66
2023/01/08 14:12:58;;;;;;;;;;;;;;;;;;4761466;27;20267;-67
2023/01/08 14:15:24;;;;;;;;;;;;;;;;;;4760431;27;20245;-66
2023/01/08 14:17:50;;;;;;;;;;;;;;;;;;4766413;27;20685;-66
2023/01/08 14:20:16;;;;;;;;;;;;;;;;;;4769230;27;20262;-67
2023/01/08 14:22:42;;;;;;;;;;;;;;;;;;4770414;27;20365;-67
2023/01/08 14:25:08;;;;;;;;;;;;;;;;;;4766615;27;20270;-67
2023/01/08 14:27:34;;;;;;;;;;;;;;;;;;4769485;27;20688;-67
2023/01/08 14:30:00;;;;;;;;;;;;;;;;;;4769232;27;20292;-66
2023/01/08 14:32:26;;;;;;;;;;;;;;;;;;4770568;27;20284;-66
2023/01/08 14:34:53;;;;;;;;;;;;;;;;;;4768059;27;20321;-67
2023/01/08 14:37:19;;;;;;;;;;;;;;;;;;4772947;27;20226;-66
2023/01/08 14:39:45;;;;;;;;;;;;;;;;;;4766334;27;20287;-66
2023/01/08 14:44:55;;;;;;;;;;;;;;;;;;4763610;27;20515;-66
2023/01/08 14:47:21;;;;;;;;;;;;;;;;;;4758879;27;20386;-67
2023/01/08 14:49:47;;;;;;;;;;;;;;;;;;4765476;27;20289;-67
2023/01/08 14:52:17;;;;;;;;;;;;;;;;;;4764877;27;21212;-68
2023/01/08 14:54:43;;;;;;;;;;;;;;;;;;4769665;27;20328;-68
2023/01/08 14:57:08;;;;;;;;;;;;;;;;;;4764552;27;20692;-67
2023/01/08 14:59:36;;;;;;;;;;;;;;;;;;4767558;27;20268;-67
2023/01/08 15:02:02;;;;;;;;;;;;;;;;;;4760084;27;20772;-68
2023/01/08 15:04:28;;;;;;;;;;;;;;;;;;4764353;27;20238;-66
2023/01/08 15:06:54;;;;;;;;;;;;;;;;;;4763068;27;20289;-67
2023/01/08 15:09:20;;;;;;;;;;;;;;;;;;4763576;27;20241;-67
2023/01/08 15:11:48;;;;;;;;;;;;;;;;;;4761036;27;20322;-67
2023/01/08 15:14:13;;;;;;;;;;;;;;;;;;4774230;27;20275;-68
2023/01/08 15:16:41;;;;;;;;;;;;;;;;;;4768616;27;20985;-68
2023/01/08 15:19:07;;;;;;;;;;;;;;;;;;4774803;27;20275;-67
2023/01/08 15:21:33;;;;;;;;;;;;;;;;;;4769607;27;20325;-67
2023/01/08 15:23:59;;;;;;;;;;;;;;;;;;4763713;27;20594;-68
2023/01/08 15:26:25;;;;;;;;;;;;;;;;;;4763729;27;20275;-65
2023/01/08 15:28:51;;;;;;;;;;;;;;;;;;4759390;27;21169;-66
2023/01/08 15:31:17;;;;;;;;;;;;;;;;;;4758821;27;21005;-66
2023/01/08 15:33:42;;;;;;;;;;;;;;;;;;4760611;27;20648;-65
2023/01/08 15:36:08;;;;;;;;;;;;;;;;;;4764452;27;20282;-66
2023/01/08 15:38:34;;;;;;;;;;;;;;;;;;4755422;27;20828;-66
2023/01/08 15:41:00;;;;;;;;;;;;;;;;;;4765725;27;20323;-67
2023/01/08 15:43:26;;;;;;;;;;;;;;;;;;4767347;27;20280;-65
2023/01/08 15:45:52;;;;;;;;;;;;;;;;;;4767593;27;20238;-65
2023/01/08 15:48:18;;;;;;;;;;;;;;;;;;4766870;27;20232;-66
2023/01/08 15:50:44;;;;;;;;;;;;;;;;;;4767663;27;21160;-65
2023/01/08 15:53:11;;;;;;;;;;;;;;;;;;4765060;27;20289;-66
2023/01/08 15:55:37;;;;;;;;;;;;;;;;;;4769823;27;20690;-64
2023/01/08 15:58:03;;;;;;;;;;;;;;;;;;4766769;27;20280;-64
2023/01/08 16:00:29;;;;;;;;;;;;;;;;;;4768883;27;20243;-64
2023/01/08 16:02:58;;;;;;;;;;;;;;;;;;4768482;27;20239;-65
2023/01/08 16:05:25;;;;;;;;;;;;;;;;;;4769407;27;20233;-65
2023/01/08 16:07:51;;;;;;;;;;;;;;;;;;4751160;27;20670;-65
2023/01/08 16:10:16;;;;;;;;;;;;;;;;;;4768850;27;20324;-66
2023/01/08 16:12:42;;;;;;;;;;;;;;;;;;4774404;27;20379;-66
2023/01/08 16:15:08;;;;;;;;;;;;;;;;;;4764351;27;20713;-67
2023/01/08 16:17:35;;;;;;;;;;;;;;;;;;4768645;27;20316;-66
2023/01/08 16:20:01;;;;;;;;;;;;;;;;;;4765368;27;20260;-66
2023/01/08 16:22:27;;;;;;;;;;;;;;;;;;4766973;27;20263;-66
2023/01/08 16:24:52;;;;;;;;;;;;;;;;;;4762635;27;20233;-66
2023/01/08 16:27:18;;;;;;;;;;;;;;;;;;4785689;27;20312;-66
2023/01/08 16:29:44;;;;;;;;;;;;;;;;;;4787820;27;20330;-66
2023/01/08 16:32:10;;;;;;;;;;;;;;;;;;4789521;27;20252;-66
2023/01/08 16:34:36;;;;;;;;;;;;;;;;;;4772024;27;20231;-67
2023/01/08 16:37:02;;;;;;;;;;;;;;;;;;4776372;27;20346;-67
2023/01/08 16:39:28;;;;;;;;;;;;;;;;;;4786355;27;20784;-67